Waverly, IA

8:05 AM CST on November 24, 2014 (GMT -0600)
Wartburg College Observatory | Change Station
CLOSE
Current Station
Personal Weather Station
Location: Waverly, IA
Elevation: 928 ft
Nearby Weather Stations

Elev 928 ft 42.73 °N, 92.49 °W | Updated 2 seconds ago

Overcast
Overcast
23.2 °F
Feels Like 9 °F
N
19.6
Wind Variable Wind from WNW
Gusts 19.6 mph

Today
High -- | Low -- °F
--% Chance of Precip.
Yesterday
High -- | Low -- °F
Precip. -- in
7:12 AM 4:40 PM
Waxing Crescent, 5% visible
Pressure 29.39 in
Visibility 4.0 miles
Clouds Overcast 1000 ft
Windchill 9 °F
Dew Point 22 °F
Humidity 94%
Rainfall 0.00 in
Snow Depth Not available.
UV 0.0 out of 12
Pollen .10 out of 12
Air Quality Not available.
Flu Activity Not available.
METAR KALO 241354Z AUTO 30017G32KT 4SM -FZRA BR OVC010 M04/M06 A2936 RMK AO2 PK WND 30032/1346 UPB31E39FZRAB39SNE31 SLP950 P0001 I1001 T10441056

More Conditions Fewer Conditions

Pressure 29.39 in
Visibility 4.0 miles
Clouds Overcast 1000 ft
Windchill 9 °F
Dew Point 22 °F
Humidity 94%
Rainfall 0.00 in
Snow Depth Not available.
UV 0.0 out of 12
Pollen .10 out of 12
Air Quality Not available.
Flu Activity Not available.
METAR KALO 241354Z AUTO 30017G32KT 4SM -FZRA BR OVC010 M04/M06 A2936 RMK AO2 PK WND 30032/1346 UPB31E39FZRAB39SNE31 SLP950 P0001 I1001 T10441056

More Conditions Fewer Conditions

10-Day Weather Forecast

Almanac

Astronomy

Nov. 24, 2014 Rise Set
Actual Time
Civil Twilight
Nautical Twilight
Astronomical Twilight
Moon
Length of Visible Light
Length of Day
Tomorrow will be .
, % of the Moon is Illuminated

Today's Extremes

State Highs State Lows

Community

WunderPhotos

Upload Photos

1,773,332 photos uploaded!

WunderBlogs® & News

Nearby

Air Quality

  Air Quality AQ Index Pollutant
Not available.

Snow Depth

Station Depth Elevation

Earthquake Activity

City Distance Mag. Time & Date
Minimum magnitude displayed is 2.5.

Coastal Water Temperatures

Place Temperature

Nearby Weather Stations